Lamy, New Mexico
Current Conditions -  °F | °C
As of 10:53 PM on Saturday 22 Nov 2014 (Local Time) from KSAF Reporting Station
Clear Clear  
Wind Chill: 29°   Ceiling: Unl
Heat Index: 34°   Visibility: 10mi
Dew Point: 14°   Wind: 6mph
Humidity: 44%   Direction: 260°W
Pressure: 29.83"   Gusts: NA
Location:  35.48°N, 105.88°W
Report Text: KSAF 230553Z AUTO 26005KT 10SM CLR 01/M10 A2983 RMK AO2 SLP067 T00111100 10089 20000 58017
Loading
Personal Weather Stations






























Interactive Weather Map New forecast layout! Learn more

10-Day Weather Forecast

Advertisements
Track Severe Weather on mobile